地図

経路データ

SID SEASON NUMBER BASIN SUBBASIN NAME ISO_TIME NATURE LAT LON WMO_WIND WMO_PRES WMO_AGENCY TRACK_TYPE DIST2LAND LANDFALL IFLAG USA_AGENCY USA_ATCF_ID USA_LAT USA_LON USA_RECORD USA_STATUS USA_WIND USA_PRES USA_SSHS USA_R34_NE USA_R34_SE USA_R34_SW USA_R34_NW USA_R50_NE USA_R50_SE USA_R50_SW USA_R50_NW USA_R64_NE USA_R64_SE USA_R64_SW USA_R64_NW USA_POCI USA_ROCI USA_RMW USA_EYE TOKYO_LAT TOKYO_LON TOKYO_GRADE TOKYO_WIND TOKYO_PRES TOKYO_R50_DIR TOKYO_R50_LONG TOKYO_R50_SHORT TOKYO_R30_DIR TOKYO_R30_LONG TOKYO_R30_SHORT TOKYO_LAND CMA_LAT CMA_LON CMA_CAT CMA_WIND CMA_PRES HKO_LAT HKO_LON HKO_CAT HKO_WIND HKO_PRES NEWDELHI_LAT NEWDELHI_LON NEWDELHI_GRADE NEWDELHI_WIND NEWDELHI_PRES NEWDELHI_CI NEWDELHI_DP NEWDELHI_POCI REUNION_LAT REUNION_LON REUNION_TYPE REUNION_WIND REUNION_PRES REUNION_TNUM REUNION_CI REUNION_RMW REUNION_R34_NE REUNION_R34_SE REUNION_R34_SW REUNION_R34_NW REUNION_R50_NE REUNION_R50_SE REUNION_R50_SW REUNION_R50_NW REUNION_R64_NE REUNION_R64_SE REUNION_R64_SW REUNION_R64_NW BOM_LAT BOM_LON BOM_TYPE BOM_WIND BOM_PRES BOM_TNUM BOM_CI BOM_RMW BOM_R34_NE BOM_R34_SE BOM_R34_SW BOM_R34_NW BOM_R50_NE BOM_R50_SE BOM_R50_SW BOM_R50_NW BOM_R64_NE BOM_R64_SE BOM_R64_SW BOM_R64_NW BOM_ROCI BOM_POCI BOM_EYE BOM_POS_METHOD BOM_PRES_METHOD NADI_LAT NADI_LON NADI_CAT NADI_WIND NADI_PRES WELLINGTON_LAT WELLINGTON_LON WELLINGTON_WIND WELLINGTON_PRES DS824_LAT DS824_LON DS824_STAGE DS824_WIND DS824_PRES TD9636_LAT TD9636_LON TD9636_STAGE TD9636_WIND TD9636_PRES TD9635_LAT TD9635_LON TD9635_WIND TD9635_PRES TD9635_ROCI NEUMANN_LAT NEUMANN_LON NEUMANN_CLASS NEUMANN_WIND NEUMANN_PRES MLC_LAT MLC_LON MLC_CLASS MLC_WIND MLC_PRES USA_GUST BOM_GUST BOM_GUST_PER REUNION_GUST REUNION_GUST_PER USA_SEAHGT USA_SEARAD_NE USA_SEARAD_SE USA_SEARAD_SW USA_SEARAD_NW STORM_SPEED STORM_DIR
1948248N14340 1948 59 NA NA NOT_NAMED 1948-09-04 06:00:00 TS 14.3000 -20.2000 35 hurdat_atl main 294 294 O_____________ hurdat_atl AL061948 14.3000 -20.2000 TS 35 0 11 264
1948248N14340 1948 59 NA NA NOT_NAMED 1948-09-04 09:00:00 TS 14.2428 -20.7526 main 359 359 P_____________ AL061948 14.2428 -20.7526 TS 37 0 11 265
1948248N14340 1948 59 NA NA NOT_NAMED 1948-09-04 12:00:00 TS 14.2000 -21.3000 40 hurdat_atl main 413 413 O_____________ hurdat_atl AL061948 14.2000 -21.3000 TS 40 0 11 267
1948248N14340 1948 59 NA NA NOT_NAMED 1948-09-04 15:00:00 TS 14.1848 -21.8425 main 466 466 P_____________ AL061948 14.1848 -21.8425 TS 40 0 11 270
1948248N14340 1948 59 NA NA NOT_NAMED 1948-09-04 18:00:00 TS 14.2000 -22.4000 40 hurdat_atl main 530 530 O_____________ hurdat_atl AL061948 14.2000 -22.4000 TS 40 0 11 273
1948248N14340 1948 59 NA NA NOT_NAMED 1948-09-04 21:00:00 TS 14.2424 -22.9925 main 595 595 P_____________ AL061948 14.2424 -22.9925 TS 40 0 12 275
1948248N14340 1948 59 NA NA NOT_NAMED 1948-09-05 00:00:00 TS 14.3000 -23.6000 40 hurdat_atl main 658 658 O_____________ hurdat_atl AL061948 14.3000 -23.6000 TS 40 0 12 275
1948248N14340 1948 59 NA NA NOT_NAMED 1948-09-05 03:00:00 TS 14.3498 -24.2000 main 722 722 P_____________ AL061948 14.3498 -24.2000 TS 40 0 12 275
1948248N14340 1948 59 NA NA NOT_NAMED 1948-09-05 06:00:00 TS 14.4000 -24.8000 40 hurdat_atl main 786 786 O_____________ hurdat_atl AL061948 14.4000 -24.8000 TS 40 0 12 275
1948248N14340 1948 59 NA NA NOT_NAMED 1948-09-05 09:00:00 TS 14.4498 -25.3925 main 851 850 P_____________ AL061948 14.4498 -25.3925 TS 42 0 12 275
1948248N14340 1948 59 NA NA NOT_NAMED 1948-09-05 12:00:00 TS 14.5000 -26.0000 45 hurdat_atl main 915 915 O_____________ hurdat_atl AL061948 14.5000 -26.0000 TS 45 0 12 274
1948248N14340 1948 59 NA NA NOT_NAMED 1948-09-05 15:00:00 TS 14.5423 -26.6351 main 979 979 P_____________ AL061948 14.5423 -26.6351 TS 45 0 13 275
1948248N14340 1948 59 NA NA NOT_NAMED 1948-09-05 18:00:00 TS 14.6000 -27.3000 45 hurdat_atl main 1054 1054 O_____________ hurdat_atl AL061948 14.6000 -27.3000 TS 45 0 13 277
1948248N14340 1948 59 NA NA NOT_NAMED 1948-09-05 21:00:00 TS 14.6924 -27.9925 main 1129 1129 P_____________ AL061948 14.6924 -27.9925 TS 45 0 14 278
1948248N14340 1948 59 NA NA NOT_NAMED 1948-09-06 00:00:00 TS 14.8000 -28.7000 45 hurdat_atl main 1204 1204 O_____________ hurdat_atl AL061948 14.8000 -28.7000 TS 45 0 14 279
1948248N14340 1948 59 NA NA NOT_NAMED 1948-09-06 03:00:00 TS 14.8998 -29.4001 main 1279 1279 P_____________ AL061948 14.8998 -29.4001 TS 45 0 14 278
1948248N14340 1948 59 NA NA NOT_NAMED 1948-09-06 06:00:00 TS 15.0000 -30.1000 45 hurdat_atl main 1355 1355 O_____________ hurdat_atl AL061948 15.0000 -30.1000 TS 45 0 14 278
1948248N14340 1948 59 NA NA NOT_NAMED 1948-09-06 09:00:00 TS 15.0923 -30.8001 main 1430 1430 P_____________ AL061948 15.0923 -30.8001 TS 47 0 14 278
1948248N14340 1948 59 NA NA NOT_NAMED 1948-09-06 12:00:00 TS 15.2000 -31.5000 50 hurdat_atl main 1505 1505 O_____________ hurdat_atl AL061948 15.2000 -31.5000 TS 50 0 14 280
1948248N14340 1948 59 NA NA NOT_NAMED 1948-09-06 15:00:00 TS 15.3273 -32.2002 main 1580 1580 P_____________ AL061948 15.3273 -32.2002 TS 50 0 14 283
1948248N14340 1948 59 NA NA NOT_NAMED 1948-09-06 18:00:00 TS 15.5000 -32.9000 50 hurdat_atl main 1656 1656 O_____________ hurdat_atl AL061948 15.5000 -32.9000 TS 50 0 14 287
1948248N14340 1948 59 NA NA NOT_NAMED 1948-09-06 21:00:00 TS 15.7273 -33.6001 main 1731 1731 P_____________ AL061948 15.7273 -33.6001 TS 50 0 14 290
1948248N14340 1948 59 NA NA NOT_NAMED 1948-09-07 00:00:00 TS 16.0000 -34.3000 50 hurdat_atl main 1807 1807 O_____________ hurdat_atl AL061948 16.0000 -34.3000 TS 50 0 15 293
1948248N14340 1948 59 NA NA NOT_NAMED 1948-09-07 03:00:00 TS 16.3073 -35.0074 main 1883 1883 P_____________ AL061948 16.3073 -35.0074 TS 50 0 15 294
1948248N14340 1948 59 NA NA NOT_NAMED 1948-09-07 06:00:00 TS 16.6000 -35.7000 50 hurdat_atl main 1960 1960 O_____________ hurdat_atl AL061948 16.6000 -35.7000 TS 50 0 14 292
1948248N14340 1948 59 NA NA NOT_NAMED 1948-09-07 09:00:00 TS 16.8297 -36.3577 main 2036 2036 P_____________ AL061948 16.8297 -36.3577 TS 50 0 13 288
1948248N14340 1948 59 NA NA NOT_NAMED 1948-09-07 12:00:00 TS 17.0000 -37.0000 50 hurdat_atl main 2101 2070 O_____________ hurdat_atl AL061948 17.0000 -37.0000 TS 50 0 13 283
1948248N14340 1948 59 NA NA NOT_NAMED 1948-09-07 15:00:00 TS 17.1223 -37.6501 main 2062 2024 P_____________ AL061948 17.1223 -37.6501 TS 50 0 13 279
1948248N14340 1948 59 NA NA NOT_NAMED 1948-09-07 18:00:00 TS 17.2000 -38.3000 50 hurdat_atl main 2024 1986 O_____________ hurdat_atl AL061948 17.2000 -38.3000 TS 50 0 13 277
1948248N14340 1948 59 NA NA NOT_NAMED 1948-09-07 21:00:00 TS 17.2649 -38.9575 main 1979 1935 P_____________ AL061948 17.2649 -38.9575 TS 50 0 12 275
1948248N14340 1948 59 NA NA NOT_NAMED 1948-09-08 00:00:00 TS 17.3000 -39.6000 50 hurdat_atl main 1935 1893 O_____________ hurdat_atl AL061948 17.3000 -39.6000 TS 50 0 12 272
1948248N14340 1948 59 NA NA NOT_NAMED 1948-09-08 03:00:00 TS 17.3073 -40.2076 main 1893 1852 P_____________ AL061948 17.3073 -40.2076 TS 50 0 11 270
1948248N14340 1948 59 NA NA NOT_NAMED 1948-09-08 06:00:00 TS 17.3000 -40.8000 50 hurdat_atl main 1852 1812 O_____________ hurdat_atl AL061948 17.3000 -40.8000 TS 50 0 11 270
1948248N14340 1948 59 NA NA NOT_NAMED 1948-09-08 09:00:00 TS 17.2998 -41.4000 main 1812 1774 P_____________ AL061948 17.2998 -41.4000 TS 50 0 11 270
1948248N14340 1948 59 NA NA NOT_NAMED 1948-09-08 12:00:00 TS 17.3000 -42.0000 50 hurdat_atl main 1774 1737 O_____________ hurdat_atl AL061948 17.3000 -42.0000 TS 50 0 12 270
1948248N14340 1948 59 NA NA NOT_NAMED 1948-09-08 15:00:00 TS 17.2999 -42.6075 main 1737 1698 P_____________ AL061948 17.2999 -42.6075 TS 50 0 11 270
1948248N14340 1948 59 NA NA NOT_NAMED 1948-09-08 18:00:00 TS 17.3000 -43.2000 50 hurdat_atl main 1698 1666 O_____________ hurdat_atl AL061948 17.3000 -43.2000 TS 50 0 11 270
1948248N14340 1948 59 NA NA NOT_NAMED 1948-09-08 21:00:00 TS 17.2998 -43.7575 main 1659 1628 P_____________ AL061948 17.2998 -43.7575 TS 50 0 11 270
1948248N14340 1948 59 NA NA NOT_NAMED 1948-09-09 00:00:00 TS 17.3000 -44.3000 50 hurdat_atl main 1628 1599 O_____________ hurdat_atl AL061948 17.3000 -44.3000 TS 50 0 10 270
1948248N14340 1948 59 NA NA NOT_NAMED 1948-09-09 03:00:00 TS 17.2998 -44.8425 main 1599 1565 P_____________ AL061948 17.2998 -44.8425 TS 50 0 11 270
1948248N14340 1948 59 NA NA NOT_NAMED 1948-09-09 06:00:00 TS 17.3000 -45.4000 50 hurdat_atl main 1565 1533 O_____________ hurdat_atl AL061948 17.3000 -45.4000 TS 50 0 11 270
1948248N14340 1948 59 NA NA NOT_NAMED 1948-09-09 09:00:00 TS 17.2998 -45.9850 main 1533 1503 P_____________ AL061948 17.2998 -45.9850 TS 50 0 11 270
1948248N14340 1948 59 NA NA NOT_NAMED 1948-09-09 12:00:00 TS 17.3000 -46.6000 50 hurdat_atl main 1503 1475 O_____________ hurdat_atl AL061948 17.3000 -46.6000 TS 50 0 12 270
1948248N14340 1948 59 NA NA NOT_NAMED 1948-09-09 15:00:00 TS 17.2924 -47.2426 main 1475 1445 P_____________ AL061948 17.2924 -47.2426 TS 50 0 12 270
1948248N14340 1948 59 NA NA NOT_NAMED 1948-09-09 18:00:00 TS 17.3000 -47.9000 50 hurdat_atl main 1445 1419 O_____________ hurdat_atl AL061948 17.3000 -47.9000 TS 50 0 13 272
1948248N14340 1948 59 NA NA NOT_NAMED 1948-09-09 21:00:00 TS 17.3348 -48.5500 main 1414 1397 P_____________ AL061948 17.3348 -48.5500 TS 50 0 12 275
1948248N14340 1948 59 NA NA NOT_NAMED 1948-09-10 00:00:00 TS 17.4000 -49.2000 50 hurdat_atl main 1397 1381 O_____________ hurdat_atl AL061948 17.4000 -49.2000 TS 50 0 12 277
1948248N14340 1948 59 NA NA NOT_NAMED 1948-09-10 03:00:00 TS 17.4773 -49.8502 main 1380 1369 P_____________ AL061948 17.4773 -49.8502 TS 50 0 13 279
1948248N14340 1948 59 NA NA NOT_NAMED 1948-09-10 06:00:00 TS 17.6000 -50.5000 50 hurdat_atl main 1370 1330 O_____________ hurdat_atl AL061948 17.6000 -50.5000 TS 50 0 13 284
1948248N14340 1948 59 NA NA NOT_NAMED 1948-09-10 09:00:00 TS 17.7773 -51.1501 main 1321 1284 P_____________ AL061948 17.7773 -51.1501 TS 50 0 13 288
1948248N14340 1948 59 NA NA NOT_NAMED 1948-09-10 12:00:00 TS 18.0000 -51.8000 50 hurdat_atl main 1284 1249 O_____________ hurdat_atl AL061948 18.0000 -51.8000 TS 50 0 13 289
1948248N14340 1948 59 NA NA NOT_NAMED 1948-09-10 15:00:00 TS 18.2122 -52.4430 main 1249 1218 P_____________ AL061948 18.2122 -52.4430 TS 50 0 13 292
1948248N14340 1948 59 NA NA NOT_NAMED 1948-09-10 18:00:00 TS 18.5000 -53.1000 50 hurdat_atl main 1218 1199 O_____________ hurdat_atl AL061948 18.5000 -53.1000 TS 50 0 15 299
1948248N14340 1948 59 NA NA NOT_NAMED 1948-09-10 21:00:00 TS 18.9123 -53.7926 main 1200 1172 P_____________ AL061948 18.9123 -53.7926 TS 52 0 16 304
1948248N14340 1948 59 NA NA NOT_NAMED 1948-09-11 00:00:00 TS 19.4000 -54.5000 55 hurdat_atl main 1172 1103 O_____________ hurdat_atl AL061948 19.4000 -54.5000 TS 55 0 16 306
1948248N14340 1948 59 NA NA NOT_NAMED 1948-09-11 03:00:00 TS 19.8771 -55.1931 main 1105 1041 P_____________ AL061948 19.8771 -55.1931 TS 60 0 17 307
1948248N14340 1948 59 NA NA NOT_NAMED 1948-09-11 06:00:00 TS 20.4000 -55.9000 65 hurdat_atl main 1041 982 O_____________ hurdat_atl AL061948 20.4000 -55.9000 HU 65 1 17 309
1948248N14340 1948 59 NA NA NOT_NAMED 1948-09-11 09:00:00 TS 20.9772 -56.6356 main 985 928 P_____________ AL061948 20.9772 -56.6356 HU 72 1 18 311
1948248N14340 1948 59 NA NA NOT_NAMED 1948-09-11 12:00:00 TS 21.6000 -57.4000 80 hurdat_atl main 928 889 O_____________ hurdat_atl AL061948 21.6000 -57.4000 HU 80 1 19 312
1948248N14340 1948 59 NA NA NOT_NAMED 1948-09-11 15:00:00 TS 22.2567 -58.1632 main 885 853 P_____________ AL061948 22.2567 -58.1632 HU 85 2 20 311
1948248N14340 1948 59 NA NA NOT_NAMED 1948-09-11 18:00:00 TS 22.9000 -59.0000 90 hurdat_atl main 851 814 O_____________ hurdat_atl AL061948 22.9000 -59.0000 HU 90 2 21 306
1948248N14340 1948 59 NA NA NOT_NAMED 1948-09-11 21:00:00 TS 23.5036 -60.0442 main 814 784 P_____________ AL061948 23.5036 -60.0442 HU 95 2 21 301
1948248N14340 1948 59 NA NA NOT_NAMED 1948-09-12 00:00:00 TS 24.0000 -61.0000 100 hurdat_atl main 786 775 O_____________ hurdat_atl AL061948 24.0000 -61.0000 HU 100 3 16 300
1948248N14340 1948 59 NA NA NOT_NAMED 1948-09-12 03:00:00 TS 24.3214 -61.5915 main 778 777 P_____________ AL061948 24.3214 -61.5915 HU 102 3 11 303
1948248N14340 1948 59 NA NA NOT_NAMED 1948-09-12 06:00:00 TS 24.6000 -62.0000 105 hurdat_atl main 786 781 O_____________ hurdat_atl AL061948 24.6000 -62.0000 HU 105 3 10 310
1948248N14340 1948 59 NA NA NOT_NAMED 1948-09-12 09:00:00 TS 24.9398 -62.4157 main 798 798 P_____________ AL061948 24.9398 -62.4157 HU 107 3 11 318
1948248N14340 1948 59 NA NA NOT_NAMED 1948-09-12 12:00:00 TS 25.4000 -62.8000 110 hurdat_atl main 834 834 O_____________ hurdat_atl AL061948 25.4000 -62.8000 HU 110 3 13 327
1948248N14340 1948 59 NA NA NOT_NAMED 1948-09-12 15:00:00 TS 26.0324 -63.2003 main 884 884 P_____________ AL061948 26.0324 -63.2003 HU 110 3 16 333
1948248N14340 1948 59 NA NA NOT_NAMED 1948-09-12 18:00:00 TS 26.8000 -63.6000 110 hurdat_atl main 961 961 O_____________ hurdat_atl AL061948 26.8000 -63.6000 HU 110 3 18 336
1948248N14340 1948 59 NA NA NOT_NAMED 1948-09-12 21:00:00 TS 27.6574 -64.0000 main 1052 1052 P_____________ AL061948 27.6574 -64.0000 HU 112 3 18 337
1948248N14340 1948 59 NA NA NOT_NAMED 1948-09-13 00:00:00 TS 28.5000 -64.4000 115 hurdat_atl main 1135 1135 O_____________ hurdat_atl AL061948 28.5000 -64.4000 HU 115 4 17 335
1948248N14340 1948 59 NA NA NOT_NAMED 1948-09-13 03:00:00 TS 29.1875 -64.8155 main 1194 1169 P_____________ AL061948 29.1875 -64.8155 HU 115 4 15 332
1948248N14340 1948 59 NA NA NOT_NAMED 1948-09-13 06:00:00 TS 29.8000 -65.2000 115 hurdat_atl main 1169 1106 O_____________ hurdat_atl AL061948 29.8000 -65.2000 HU 115 4 14 332
1948248N14340 1948 59 NA NA NOT_NAMED 1948-09-13 09:00:00 TS 30.4000 -65.5599 main 1098 1045 P_____________ AL061948 30.4000 -65.5599 HU 115 4 13 337
1948248N14340 1948 59 NA NA NOT_NAMED 1948-09-13 12:00:00 TS 31.0000 -65.8000 115 hurdat_atl main 1045 1001 O_____________ hurdat_atl AL061948 31.0000 -65.8000 HU 115 4 13 348
1948248N14340 1948 59 NA NA NOT_NAMED 1948-09-13 15:00:00 TS 31.6349 -65.8679 main 1001 972 P_____________ AL061948 31.6349 -65.8679 HU 112 3 13 1
1948248N14340 1948 59 NA NA NOT_NAMED 1948-09-13 18:00:00 TS 32.3000 -65.8000 110 hurdat_atl main 972 949 O_____________ hurdat_atl AL061948 32.3000 -65.8000 HU 110 3 14 6
1948248N14340 1948 59 NA NA NOT_NAMED 1948-09-13 21:00:00 TS 32.9924 -65.6947 main 949 938 P_____________ AL061948 32.9924 -65.6947 HU 107 3 14 10
1948248N14340 1948 59 NA NA NOT_NAMED 1948-09-14 00:00:00 TS 33.7000 -65.5000 105 hurdat_atl main 940 910 O_____________ hurdat_atl AL061948 33.7000 -65.5000 HU 105 3 15 15
1948248N14340 1948 59 NA NA NOT_NAMED 1948-09-14 03:00:00 TS 34.3999 -65.2445 main 914 857 P_____________ AL061948 34.3999 -65.2445 HU 102 3 15 19
1948248N14340 1948 59 NA NA NOT_NAMED 1948-09-14 06:00:00 TS 35.1000 -64.9000 100 hurdat_atl main 857 814 O_____________ hurdat_atl AL061948 35.1000 -64.9000 HU 100 3 15 24
1948248N14340 1948 59 NA NA NOT_NAMED 1948-09-14 09:00:00 TS 35.7546 -64.5076 main 810 775 P_____________ AL061948 35.7546 -64.5076 HU 97 3 16 28
1948248N14340 1948 59 NA NA NOT_NAMED 1948-09-14 12:00:00 TS 36.5000 -64.0000 95 hurdat_atl main 775 695 O_____________ hurdat_atl AL061948 36.5000 -64.0000 HU 95 2 19 28
1948248N14340 1948 59 NA NA NOT_NAMED 1948-09-14 15:00:00 TS 37.4690 -63.3960 main 686 607 P_____________ AL061948 37.4690 -63.3960 HU 90 2 23 29
1948248N14340 1948 59 NA NA NOT_NAMED 1948-09-14 18:00:00 TS 38.5000 -62.6000 85 hurdat_atl main 600 545 O_____________ hurdat_atl AL061948 38.5000 -62.6000 HU 85 2 24 36
1948248N14340 1948 59 NA NA NOT_NAMED 1948-09-14 21:00:00 TS 39.4211 -61.6168 main 549 521 P_____________ AL061948 39.4211 -61.6168 HU 82 1 25 43
1948248N14340 1948 59 NA NA NOT_NAMED 1948-09-15 00:00:00 TS 40.3000 -60.4000 80 hurdat_atl main 525 489 O_____________ hurdat_atl AL061948 40.3000 -60.4000 HU 80 1 26 50
1948248N14340 1948 59 NA NA NOT_NAMED 1948-09-15 03:00:00 TS 41.0873 -59.0235 main 486 461 P_____________ AL061948 41.0873 -59.0235 HU 77 1 28 53
1948248N14340 1948 59 NA NA NOT_NAMED 1948-09-15 06:00:00 ET 42.0000 -57.4000 75 hurdat_atl main 463 400 O_____________ hurdat_atl AL061948 42.0000 -57.4000 EX 75 -4 34 50
1948248N14340 1948 59 NA NA NOT_NAMED 1948-09-15 09:00:00 ET 43.2382 -55.5185 main 400 233 P_____________ AL061948 43.2382 -55.5185 EX 72 -4 39 48
1948248N14340 1948 59 NA NA NOT_NAMED 1948-09-15 12:00:00 ET 44.6000 -53.4000 70 hurdat_atl main 222 162 O_____________ hurdat_atl AL061948 44.6000 -53.4000 EX 70 -4 41 50
1948248N14340 1948 59 NA NA NOT_NAMED 1948-09-15 15:00:00 ET 45.8408 -51.1347 main 182 182 P_____________ AL061948 45.8408 -51.1347 EX 67 -4 41 52
1948248N14340 1948 59 NA NA NOT_NAMED 1948-09-15 18:00:00 ET 47.1000 -48.8000 65 hurdat_atl main 288 288 O_____________ hurdat_atl AL061948 47.1000 -48.8000 EX 65 -4 41 51
1948248N14340 1948 59 NA NA NOT_NAMED 1948-09-15 21:00:00 ET 48.3949 -46.4576 main 463 463 P_____________ AL061948 48.3949 -46.4576 EX 62 -4 41 49
1948248N14340 1948 59 NA NA NOT_NAMED 1948-09-16 00:00:00 ET 49.8000 -44.2000 60 hurdat_atl main 652 652 O_____________ hurdat_atl AL061948 49.8000 -44.2000 EX 60 -4 41 44
1948248N14340 1948 59 NA NA NOT_NAMED 1948-09-16 03:00:00 ET 51.3468 -42.1098 main 834 818 P_____________ AL061948 51.3468 -42.1098 EX 57 -4 41 39
1948248N14340 1948 59 NA NA NOT_NAMED 1948-09-16 06:00:00 ET 53.0000 -40.0000 55 hurdat_atl main 808 685 O_____________ hurdat_atl AL061948 53.0000 -40.0000 EX 55 -4 43 38
1948248N14340 1948 59 NA NA NOT_NAMED 1948-09-16 09:00:00 ET 54.7336 -37.6345 main 681 626 P_____________ AL061948 54.7336 -37.6345 EX 55 -4 44 41
1948248N14340 1948 59 NA NA NOT_NAMED 1948-09-16 12:00:00 ET 56.3000 -35.0000 55 hurdat_atl main 631 631 O_____________ hurdat_atl AL061948 56.3000 -35.0000 EX 55 -4 41 49
1948248N14340 1948 59 NA NA NOT_NAMED 1948-09-16 15:00:00 ET 57.4120 -32.1186 main 696 696 P_____________ AL061948 57.4120 -32.1186 EX 55 -4 38 58
1948248N14340 1948 59 NA NA NOT_NAMED 1948-09-16 18:00:00 ET 58.3000 -29.0000 55 hurdat_atl main 694 544 O_____________ hurdat_atl AL061948 58.3000 -29.0000 EX 55 -4 38 63
1948248N14340 1948 59 NA NA NOT_NAMED 1948-09-16 21:00:00 ET 59.1781 -25.6298 main 531 400 P_____________ AL061948 59.1781 -25.6298 EX 57 -4 39 65
1948248N14340 1948 59 NA NA NOT_NAMED 1948-09-17 00:00:00 ET 60.0000 -22.0000 60 hurdat_atl main 398 288 O_____________ hurdat_atl AL061948 60.0000 -22.0000 EX 60 -4 41 67
1948248N14340 1948 59 NA NA NOT_NAMED 1948-09-17 03:00:00 ET 60.7968 -18.0701 main 289 276 P_____________ AL061948 60.7968 -18.0701 EX 60 -4 42 69
1948248N14340 1948 59 NA NA NOT_NAMED 1948-09-17 06:00:00 ET 61.5000 -14.0000 60 hurdat_atl main 291 291 O_____________ hurdat_atl AL061948 61.5000 -14.0000 EX 60 -4 40 72
1948248N14340 1948 59 NA NA NOT_NAMED 1948-09-17 09:00:00 ET 62.0637 -9.99156 main 338 338 P_____________ AL061948 62.0637 -9.99156 EX 60 -4 39 75
1948248N14340 1948 59 NA NA NOT_NAMED 1948-09-17 12:00:00 ET 62.5000 -6.00000 60 hurdat_atl main 445 O_____________ hurdat_atl AL061948 62.5000 -6.00000 EX 60 -4 38 77

IBTrACS Databaseについて

本データベースは、米国NOAAが公開する1842年以降の世界の熱帯低気圧のベストトラックデータアーカイブInternational Best Track Archive for Climate Stewardship (IBTrACS)を、ウェブで閲覧しやすい形式に変換したものです。

最終更新日:2021-10-21